Anaktuvuk Pass, AK

11:57 AM AKDT on August 29, 2015 (GMT -0800)
Anaktuvuk Pass | | Change Station
CLOSE
Current Station
Airport
Location: Anaktuvuk Pass,
Elevation: 2103 ft
Nearby Weather Stations
Active Advisory: Winter Storm Warning

Elev 2103 ft 68.13 °N, 151.74 °W | Updated 1 minute ago

Overcast
Overcast
32 °F
Feels Like 25 °F
N
8
Wind Variable Wind from ENE

Today
High -- | Low -- °F
--% Chance of Precip.
Yesterday
High -- | Low -- °F
Precip. -- in
6:21 AM 9:51 PM
Full, 100% visible
Pressure 29.33 in
Visibility 10.0 miles
Clouds Scattered Clouds 4100 ft
Mostly Cloudy 5000 ft
Overcast 9000 ft
Windchill 25 °F
Dew Point 19 °F
Humidity 60%
Rainfall 0.00 in
Snow Depth Not available.
UV 1 out of 12
Pollen Not available.
Air Quality Not available.
Flu Activity Not available.
METAR PAKP 291956Z AUTO 06007KT 10SM SCT041 BKN050 OVC090 00/M07 A2933 RMK AO1
Pressure 29.33 in
Visibility 10.0 miles
Clouds Scattered Clouds 4100 ft
Mostly Cloudy 5000 ft
Overcast 9000 ft
Windchill 25 °F
Dew Point 19 °F
Humidity 60%
Rainfall 0.00 in
Snow Depth Not available.
UV 1 out of 12
Pollen Not available.
Air Quality Not available.
Flu Activity Not available.
METAR PAKP 291956Z AUTO 06007KT 10SM SCT041 BKN050 OVC090 00/M07 A2933 RMK AO1

10-Day Weather Forecast

×

Almanac

Astronomy

Aug. 29, 2015 Rise Set
Actual Time
Civil Twilight
Nautical Twilight
Astronomical Twilight
Moon
Length of Visible Light
Length of Day
Tomorrow will be .
, % of the Moon is Illuminated

Today's Extremes

State Highs State Lows

Community

WunderPhotos

Upload Photos

1,850,786 photos uploaded!

WunderBlogs® & News

Nearby

Air Quality

  Air Quality AQ Index Pollutant
Not available.

Snow Depth

Station Depth Elevation

Earthquake Activity

City Distance Mag. Time & Date
Minimum magnitude displayed is 2.5.

Coastal Water Temperatures

Place Temperature

Stations

Nearby Weather Stations

Station Location Temp. Windchill Dew Point Humidity Wind Precip. Elev Updated Type
                   
Winter Storm Warning
Statement as of 4:42 AM AKDT on August 29, 2015

... Winter Storm Warning remains in effect until 6 PM akdt this
evening...

* location... above 2500 feet.

* Snow... with storm total 3 to 6 inches... heaviest in Atigun
Pass.

* Timing... additional accumulation of 1 to 3 inches is expected
through early evening.

* Impacts... heavy snow will make travel difficult.

Precautionary/preparedness actions...

A Winter Storm Warning means one or more significant winter
weather hazards are occurring or expected.